createdAt,value
2022-11-28T00:01:23.158Z,100.00
2022-11-28T00:03:50.135Z,100.00
2022-11-28T00:06:17.716Z,100.00
2022-11-28T00:08:45.239Z,100.00
2022-11-28T00:11:14.277Z,100.00
2022-11-28T00:13:41.830Z,100.00
2022-11-28T00:16:10.027Z,100.00
2022-11-28T00:18:36.987Z,100.00
2022-11-28T00:21:06.794Z,100.00
2022-11-28T00:23:34.032Z,100.00
2022-11-28T00:26:06.361Z,100.00
2022-11-28T00:28:33.310Z,100.00
2022-11-28T00:31:00.522Z,100.00
2022-11-28T00:33:27.676Z,100.00
2022-11-28T00:36:02.308Z,100.00
2022-11-28T00:38:29.202Z,100.00
2022-11-28T00:41:07.576Z,100.00
2022-11-28T00:43:34.704Z,100.00
2022-11-28T00:46:02.755Z,100.00
2022-11-28T00:48:30.162Z,100.00
2022-11-28T00:51:09.006Z,100.00
2022-11-28T00:53:36.350Z,100.00
2022-11-28T00:56:07.270Z,100.00
2022-11-28T00:58:35.503Z,100.00
2022-11-28T01:01:15.821Z,100.00
2022-11-28T01:03:43.005Z,100.00
2022-11-28T01:06:10.691Z,100.00
2022-11-28T01:08:38.042Z,100.00
2022-11-28T01:11:11.149Z,100.00
2022-11-28T01:13:38.115Z,100.00
2022-11-28T01:16:05.202Z,100.00
2022-11-28T01:18:32.145Z,100.00
2022-11-28T01:20:58.930Z,100.00
2022-11-28T01:23:25.741Z,100.00
2022-11-28T01:25:52.545Z,100.00
2022-11-28T01:28:19.751Z,100.00
2022-11-28T01:30:46.688Z,100.00
2022-11-28T01:33:13.584Z,100.00
2022-11-28T01:35:40.444Z,100.00
2022-11-28T01:38:07.440Z,100.00
2022-11-28T01:40:34.331Z,100.00
2022-11-28T01:43:01.259Z,100.00
2022-11-28T01:45:32.610Z,100.00
2022-11-28T01:48:02.528Z,100.00
2022-11-28T01:50:31.750Z,100.00
2022-11-28T01:53:02.166Z,100.00
2022-11-28T01:55:32.497Z,100.00
2022-11-28T01:57:59.654Z,100.00
2022-11-28T02:00:26.643Z,100.00
2022-11-28T02:03:00.970Z,100.00
2022-11-28T02:05:27.798Z,100.00
2022-11-28T02:07:54.753Z,100.00
2022-11-28T02:10:30.961Z,100.00
2022-11-28T02:13:16.331Z,100.00
2022-11-28T02:16:14.009Z,100.00
2022-11-28T02:19:02.013Z,100.00
2022-11-28T02:21:58.479Z,100.00
2022-11-28T02:24:40.073Z,100.00
2022-11-28T02:27:32.692Z,100.00
2022-11-28T02:30:06.602Z,100.00
2022-11-28T02:32:42.861Z,100.00
2022-11-28T02:35:23.696Z,100.00
2022-11-28T02:38:10.015Z,100.00
2022-11-28T02:40:46.352Z,100.00
2022-11-28T02:43:25.151Z,100.00
2022-11-28T02:46:10.553Z,100.00
2022-11-28T02:48:52.059Z,100.00
2022-11-28T02:51:24.833Z,100.00
2022-11-28T02:53:52.201Z,100.00
2022-11-28T02:56:19.461Z,100.00
2022-11-28T02:58:46.311Z,100.00
2022-11-28T03:01:20.157Z,100.00
2022-11-28T03:04:07.722Z,100.00
2022-11-28T03:07:00.124Z,100.00
2022-11-28T03:09:51.928Z,100.00
2022-11-28T03:12:40.330Z,100.00
2022-11-28T03:15:09.552Z,100.00
2022-11-28T03:18:02.234Z,100.00
2022-11-28T03:20:39.454Z,100.00
2022-11-28T03:23:14.057Z,100.00
2022-11-28T03:25:56.427Z,100.00
2022-11-28T03:28:36.201Z,100.00
2022-11-28T03:31:35.737Z,100.00
2022-11-28T03:34:04.947Z,100.00
2022-11-28T03:36:34.897Z,100.00
2022-11-28T03:39:32.885Z,100.00
2022-11-28T03:42:19.816Z,100.00
2022-11-28T03:45:03.869Z,100.00
2022-11-28T03:47:35.393Z,100.00
2022-11-28T03:50:07.020Z,100.00
2022-11-28T03:52:38.252Z,100.00
2022-11-28T03:55:18.762Z,100.00
2022-11-28T03:57:54.985Z,100.00
2022-11-28T04:00:22.516Z,100.00
2022-11-28T04:03:02.918Z,100.00
2022-11-28T04:05:29.851Z,100.00
2022-11-28T04:08:01.610Z,100.00
2022-11-28T04:10:43.379Z,100.00
2022-11-28T04:13:22.778Z,100.00
2022-11-28T04:16:08.049Z,100.00
2022-11-28T04:18:43.436Z,100.00
2022-11-28T04:21:30.625Z,100.00
2022-11-28T04:24:03.059Z,100.00
2022-11-28T04:26:38.977Z,100.00
2022-11-28T04:29:10.273Z,100.00
2022-11-28T04:31:38.534Z,100.00
2022-11-28T04:34:08.962Z,100.00
2022-11-28T04:36:38.705Z,100.00
2022-11-28T04:39:16.419Z,100.00
2022-11-28T04:42:32.846Z,100.00
2022-11-28T04:45:12.342Z,100.00
2022-11-28T04:47:39.235Z,100.00
2022-11-28T04:50:06.732Z,100.00
2022-11-28T04:52:51.752Z,100.00
2022-11-28T04:55:41.169Z,100.00
2022-11-28T04:58:11.303Z,100.00
2022-11-28T05:00:39.072Z,100.00
2022-11-28T05:03:06.480Z,100.00
2022-11-28T05:05:42.639Z,100.00
2022-11-28T05:08:09.791Z,100.00
2022-11-28T05:10:36.679Z,100.00
2022-11-28T05:13:03.859Z,100.00
2022-11-28T05:15:30.807Z,100.00
2022-11-28T05:17:57.719Z,100.00
2022-11-28T05:20:25.112Z,100.00
2022-11-28T05:22:51.925Z,100.00
2022-11-28T05:25:18.730Z,100.00
2022-11-28T05:27:48.166Z,100.00
2022-11-28T05:30:15.389Z,100.00
2022-11-28T05:32:42.614Z,100.00
2022-11-28T05:35:09.702Z,100.00
2022-11-28T05:37:37.056Z,100.00
2022-11-28T05:40:05.467Z,100.00
2022-11-28T05:42:33.520Z,100.00
2022-11-28T05:45:00.370Z,100.00
2022-11-28T05:47:27.179Z,100.00
2022-11-28T05:49:56.100Z,100.00
2022-11-28T05:52:23.128Z,100.00
2022-11-28T05:54:49.954Z,100.00
2022-11-28T05:57:16.889Z,100.00
2022-11-28T05:59:45.660Z,100.00
2022-11-28T06:02:12.827Z,100.00
2022-11-28T06:04:41.980Z,100.00
2022-11-28T06:07:09.060Z,100.00
2022-11-28T06:09:36.292Z,100.00
2022-11-28T06:12:03.231Z,100.00
2022-11-28T06:14:30.039Z,100.00
2022-11-28T06:16:57.168Z,100.00
2022-11-28T06:19:24.068Z,100.00
2022-11-28T06:21:50.981Z,100.00
2022-11-28T06:24:17.831Z,100.00
2022-11-28T06:26:44.622Z,100.00
2022-11-28T06:29:11.515Z,100.00
2022-11-28T06:31:38.429Z,100.00
2022-11-28T06:34:05.277Z,100.00
2022-11-28T06:36:32.143Z,100.00
2022-11-28T06:38:59.110Z,100.00
2022-11-28T06:41:26.081Z,100.00
2022-11-28T06:43:52.845Z,100.00
2022-11-28T06:46:21.368Z,100.00
2022-11-28T06:48:50.655Z,100.00
2022-11-28T06:51:18.278Z,100.00
2022-11-28T06:53:45.117Z,100.00
2022-11-28T06:56:17.215Z,100.00
2022-11-28T06:58:44.329Z,100.00
2022-11-28T07:01:19.661Z,100.00
2022-11-28T07:03:46.876Z,100.00
2022-11-28T07:06:15.082Z,100.00
2022-11-28T07:08:42.579Z,100.00
2022-11-28T07:11:16.527Z,100.00
2022-11-28T07:13:47.877Z,100.00
2022-11-28T07:16:23.362Z,100.00
2022-11-28T07:18:50.680Z,100.00
2022-11-28T07:21:17.849Z,100.00
2022-11-28T07:23:45.128Z,100.00
2022-11-28T07:26:13.849Z,100.00
2022-11-28T07:28:41.454Z,100.00
2022-11-28T07:31:13.492Z,100.00
2022-11-28T07:33:42.312Z,100.00
2022-11-28T07:36:17.925Z,100.00
2022-11-28T07:38:52.607Z,100.00
2022-11-28T07:41:24.936Z,100.00
2022-11-28T07:43:57.149Z,100.00
2022-11-28T07:46:24.747Z,100.00
2022-11-28T07:48:52.082Z,100.00
2022-11-28T07:51:21.776Z,100.00
2022-11-28T07:53:49.090Z,100.00
2022-11-28T07:56:19.295Z,100.00
2022-11-28T07:58:46.846Z,100.00
2022-11-28T08:01:15.011Z,100.00
2022-11-28T08:03:42.521Z,100.00
2022-11-28T08:06:09.392Z,100.00
2022-11-28T08:08:36.448Z,100.00
2022-11-28T08:11:05.896Z,100.00
2022-11-28T08:13:33.105Z,100.00
2022-11-28T08:16:07.669Z,100.00
2022-11-28T08:18:38.164Z,100.00
2022-11-28T08:21:13.591Z,100.00
2022-11-28T08:23:40.569Z,100.00
2022-11-28T08:26:11.689Z,100.00
2022-11-28T08:28:38.568Z,100.00
2022-11-28T08:31:17.262Z,100.00
2022-11-28T08:33:45.561Z,100.00
2022-11-28T08:36:14.459Z,100.00
2022-11-28T08:38:47.044Z,100.00
2022-11-28T08:41:22.478Z,100.00
2022-11-28T08:43:50.772Z,100.00
2022-11-28T08:46:20.462Z,100.00
2022-11-28T08:48:49.382Z,100.00
2022-11-28T08:51:19.334Z,100.00
2022-11-28T08:53:49.319Z,100.00
2022-11-28T08:56:16.475Z,100.00
2022-11-28T08:58:43.609Z,100.00
2022-11-28T09:01:36.818Z,100.00
2022-11-28T09:04:04.277Z,100.00
2022-11-28T09:06:31.179Z,100.00
2022-11-28T09:08:58.195Z,100.00
2022-11-28T09:11:25.294Z,100.00
2022-11-28T09:13:52.160Z,100.00
2022-11-28T09:16:19.937Z,100.00
2022-11-28T09:18:46.873Z,97.44
2022-11-28T09:21:15.275Z,97.67
2022-11-28T09:23:44.040Z,97.61
2022-11-28T09:26:16.322Z,97.20
2022-11-28T09:28:43.611Z,97.66
2022-11-28T09:31:12.423Z,97.91
2022-11-28T09:33:39.522Z,97.71
2022-11-28T09:36:14.336Z,97.91
2022-11-28T09:38:41.304Z,98.08
2022-11-28T09:41:28.277Z,98.59
2022-11-28T09:44:01.282Z,99.06
2022-11-28T09:46:32.860Z,99.18
2022-11-28T09:49:03.692Z,99.85
2022-11-28T09:51:55.459Z,100.00
2022-11-28T09:55:00.659Z,98.84
2022-11-28T09:57:40.576Z,98.04
2022-11-28T10:00:32.082Z,98.26
2022-11-28T10:03:23.845Z,98.22
2022-11-28T10:06:15.065Z,97.78
2022-11-28T10:09:02.981Z,97.86
2022-11-28T10:12:03.310Z,98.33
2022-11-28T10:15:07.907Z,97.12
2022-11-28T10:17:40.056Z,96.69
2022-11-28T10:20:14.753Z,96.30
2022-11-28T10:22:50.903Z,95.61
2022-11-28T10:25:26.984Z,96.21
2022-11-28T10:27:55.382Z,93.94
2022-11-28T10:30:27.075Z,94.06
2022-11-28T10:32:57.601Z,93.27
2022-11-28T10:35:47.804Z,92.22
2022-11-28T10:38:16.068Z,92.42
2022-11-28T10:41:11.443Z,91.90
2022-11-28T10:44:05.921Z,92.32
2022-11-28T10:47:18.909Z,92.71
2022-11-28T10:50:10.746Z,92.12
2022-11-28T10:52:59.389Z,91.91
2022-11-28T10:55:47.842Z,90.40
2022-11-28T10:58:17.846Z,90.80
2022-11-28T11:00:45.551Z,90.72
2022-11-28T11:03:14.825Z,90.87
2022-11-28T11:05:42.522Z,90.79
2022-11-28T11:08:24.237Z,90.92
2022-11-28T11:10:58.206Z,90.90
2022-11-28T11:13:28.395Z,90.82
2022-11-28T11:16:07.118Z,90.82
2022-11-28T11:18:51.585Z,91.05
2022-11-28T11:21:23.534Z,90.57
2022-11-28T11:24:11.996Z,91.17
2022-11-28T11:26:41.918Z,89.80
2022-11-28T11:29:21.315Z,89.47
2022-11-28T11:31:52.087Z,89.65
2022-11-28T11:34:21.415Z,89.75
2022-11-28T11:36:48.355Z,89.97
2022-11-28T11:39:23.478Z,88.81
2022-11-28T11:42:11.396Z,88.99
2022-11-28T11:44:38.346Z,88.68
2022-11-28T11:47:08.166Z,88.37
2022-11-28T11:49:46.453Z,87.98
2022-11-28T11:52:13.339Z,88.10
2022-11-28T11:54:52.420Z,87.19
2022-11-28T11:57:36.919Z,87.63
2022-11-28T12:00:26.660Z,88.44
2022-11-28T12:02:58.982Z,88.83
2022-11-28T12:05:46.365Z,88.81
2022-11-28T12:08:37.190Z,89.38
2022-11-28T12:11:25.210Z,89.56
2022-11-28T12:13:52.373Z,90.05
2022-11-28T12:16:34.371Z,90.39
2022-11-28T12:19:16.565Z,90.49
2022-11-28T12:21:57.023Z,89.96
2022-11-28T12:24:52.452Z,90.57
2022-11-28T12:27:31.058Z,90.77
2022-11-28T12:30:21.884Z,90.47
2022-11-28T12:32:57.886Z,90.74
2022-11-28T12:35:31.238Z,91.05
2022-11-28T12:38:33.820Z,90.64
2022-11-28T12:41:06.613Z,90.65
2022-11-28T12:44:06.571Z,90.63
2022-11-28T12:46:59.784Z,89.34
2022-11-28T12:49:36.034Z,89.63
2022-11-28T12:52:23.170Z,88.58
2022-11-28T12:54:59.899Z,88.43
2022-11-28T12:58:07.034Z,88.41
2022-11-28T13:00:34.595Z,88.56
2022-11-28T13:03:34.505Z,88.91
2022-11-28T13:06:19.724Z,89.25
2022-11-28T13:09:30.172Z,89.13
2022-11-28T13:12:22.355Z,89.50
2022-11-28T13:14:57.640Z,89.32
2022-11-28T13:17:32.306Z,90.19
2022-11-28T13:20:17.210Z,89.87
2022-11-28T13:23:06.258Z,88.11
2022-11-28T13:25:45.236Z,87.50
2022-11-28T13:28:33.989Z,88.13
2022-11-28T13:31:08.846Z,88.55
2022-11-28T13:33:55.973Z,88.21
2022-11-28T13:39:53.943Z,87.58
2022-11-28T13:42:59.767Z,87.92
2022-11-28T13:45:32.463Z,87.81
2022-11-28T13:48:00.947Z,88.23
2022-11-28T13:50:36.456Z,89.14
2022-11-28T13:53:12.626Z,89.00
2022-11-28T13:55:47.151Z,88.66
2022-11-28T13:58:29.389Z,89.03
2022-11-28T14:01:08.050Z,89.32
2022-11-28T14:03:46.247Z,89.18
2022-11-28T14:06:17.072Z,89.67
2022-11-28T14:08:45.172Z,90.04
2022-11-28T14:11:37.054Z,90.04
2022-11-28T14:14:29.018Z,90.16
2022-11-28T14:17:01.746Z,90.73
2022-11-28T14:19:51.559Z,90.98
2022-11-28T14:22:27.732Z,90.96
2022-11-28T14:25:02.052Z,91.07
2022-11-28T14:27:34.012Z,91.56
2022-11-28T14:30:01.631Z,92.02
2022-11-28T14:32:40.743Z,92.39
2022-11-28T14:35:16.800Z,92.75
2022-11-28T14:37:52.890Z,93.03
2022-11-28T14:40:57.218Z,93.26
2022-11-28T14:43:24.001Z,93.99
2022-11-28T14:45:52.334Z,93.60
2022-11-28T14:48:22.365Z,93.77
2022-11-28T14:50:52.542Z,94.13
2022-11-28T14:53:44.656Z,94.33
2022-11-28T14:56:23.219Z,94.65
2022-11-28T14:58:51.468Z,95.19
2022-11-28T15:01:27.913Z,95.46
2022-11-28T15:04:08.674Z,95.82
2022-11-28T15:06:37.004Z,96.15
2022-11-28T15:09:27.946Z,96.04
2022-11-28T15:12:04.102Z,96.30
2022-11-28T15:14:32.389Z,96.83
2022-11-28T15:17:05.200Z,96.80
2022-11-28T15:19:38.747Z,96.72
2022-11-28T15:22:05.819Z,96.94
2022-11-28T15:24:37.787Z,97.02
2022-11-28T15:27:07.761Z,97.09
2022-11-28T15:29:36.259Z,97.35
2022-11-28T15:32:04.760Z,97.35
2022-11-28T15:34:33.087Z,97.34
2022-11-28T15:37:02.375Z,97.36
2022-11-28T15:39:31.180Z,97.35
2022-11-28T15:42:00.545Z,97.49
2022-11-28T15:44:27.827Z,97.83
2022-11-28T15:46:55.198Z,97.84
2022-11-28T15:49:33.442Z,98.13
2022-11-28T15:52:03.306Z,98.07
2022-11-28T15:54:36.090Z,98.14
2022-11-28T15:57:03.828Z,98.19
2022-11-28T15:59:31.149Z,98.25
2022-11-28T16:02:04.035Z,98.29
2022-11-28T16:04:31.121Z,98.25
2022-11-28T16:06:59.260Z,98.29
2022-11-28T16:09:32.621Z,98.38
2022-11-28T16:11:59.920Z,98.37
2022-11-28T16:14:36.592Z,98.43
2022-11-28T16:17:13.515Z,98.46
2022-11-28T16:19:43.063Z,98.47
2022-11-28T16:22:11.857Z,98.64
2022-11-28T16:24:55.376Z,98.68
2022-11-28T16:27:44.342Z,98.84
2022-11-28T16:30:38.450Z,98.98
2022-11-28T16:33:35.723Z,99.32
2022-11-28T16:36:17.822Z,99.59
2022-11-28T16:38:49.809Z,100.00
2022-11-28T16:41:26.353Z,100.00
2022-11-28T16:43:56.578Z,100.00
2022-11-28T16:46:33.324Z,100.00
2022-11-28T16:49:01.009Z,100.00
2022-11-28T16:51:36.080Z,100.00
2022-11-28T16:54:23.771Z,100.00
2022-11-28T16:56:57.516Z,100.00
2022-11-28T16:59:25.901Z,100.00
2022-11-28T17:01:54.217Z,100.00
2022-11-28T17:04:28.705Z,100.00
2022-11-28T17:06:57.981Z,100.00
2022-11-28T17:09:25.075Z,100.00
2022-11-28T17:12:04.027Z,100.00
2022-11-28T17:14:30.991Z,100.00
2022-11-28T17:16:57.967Z,100.00
2022-11-28T17:19:25.761Z,100.00
2022-11-28T17:21:56.028Z,100.00
2022-11-28T17:24:29.039Z,100.00
2022-11-28T17:26:56.204Z,100.00
2022-11-28T17:29:25.332Z,100.00
2022-11-28T17:31:55.153Z,100.00
2022-11-28T17:34:27.626Z,100.00
2022-11-28T17:36:55.054Z,100.00
2022-11-28T17:39:22.663Z,100.00
2022-11-28T17:41:50.133Z,100.00
2022-11-28T17:44:23.175Z,100.00
2022-11-28T17:46:51.670Z,100.00
2022-11-28T17:49:19.424Z,100.00
2022-11-28T17:51:46.442Z,100.00
2022-11-28T17:54:16.367Z,100.00
2022-11-28T17:56:45.437Z,100.00
2022-11-28T17:59:13.835Z,100.00
2022-11-28T18:01:41.184Z,100.00
2022-11-28T18:04:09.493Z,100.00
2022-11-28T18:06:36.881Z,100.00
2022-11-28T18:09:11.667Z,100.00
2022-11-28T18:11:40.399Z,100.00
2022-11-28T18:14:09.286Z,100.00
2022-11-28T18:16:36.428Z,100.00
2022-11-28T18:19:04.366Z,100.00
2022-11-28T18:21:32.204Z,100.00
2022-11-28T18:23:59.257Z,100.00
2022-11-28T18:26:27.899Z,100.00
2022-11-28T18:28:55.880Z,100.00
2022-11-28T18:31:28.589Z,100.00
2022-11-28T18:34:00.416Z,100.00
2022-11-28T18:36:30.705Z,100.00
2022-11-28T18:39:03.659Z,100.00
2022-11-28T18:41:31.127Z,100.00
2022-11-28T18:43:59.945Z,100.00
2022-11-28T18:46:35.023Z,100.00
2022-11-28T18:49:03.279Z,100.00
2022-11-28T18:51:32.691Z,100.00
2022-11-28T18:53:59.766Z,100.00
2022-11-28T18:56:27.291Z,100.00
2022-11-28T18:58:56.945Z,100.00
2022-11-28T19:01:30.463Z,100.00
2022-11-28T19:04:00.819Z,100.00
2022-11-28T19:06:27.956Z,100.00
2022-11-28T19:08:57.696Z,100.00
2022-11-28T19:11:25.479Z,100.00
2022-11-28T19:13:53.626Z,100.00
2022-11-28T19:16:23.631Z,100.00
2022-11-28T19:18:51.210Z,100.00
2022-11-28T19:21:22.296Z,100.00
2022-11-28T19:23:50.318Z,100.00
2022-11-28T19:26:20.542Z,100.00
2022-11-28T19:28:48.075Z,100.00
2022-11-28T19:31:35.122Z,100.00
2022-11-28T19:34:02.944Z,100.00
2022-11-28T19:36:31.825Z,100.00
2022-11-28T19:39:00.206Z,100.00
2022-11-28T19:41:28.097Z,100.00
2022-11-28T19:43:55.334Z,100.00
2022-11-28T19:46:22.735Z,100.00
2022-11-28T19:48:51.807Z,100.00
2022-11-28T19:51:20.496Z,100.00
2022-11-28T19:53:47.550Z,100.00
2022-11-28T19:56:17.710Z,100.00
2022-11-28T19:58:45.637Z,100.00
2022-11-28T20:01:23.987Z,100.00
2022-11-28T20:03:52.115Z,100.00
2022-11-28T20:06:24.441Z,100.00
2022-11-28T20:08:53.246Z,100.00
2022-11-28T20:11:23.040Z,100.00
2022-11-28T20:13:56.074Z,100.00
2022-11-28T20:16:23.367Z,100.00
2022-11-28T20:18:51.878Z,100.00
2022-11-28T20:21:20.247Z,100.00
2022-11-28T20:23:55.694Z,100.00
2022-11-28T20:26:26.247Z,100.00
2022-11-28T20:28:56.327Z,100.00
2022-11-28T20:31:30.707Z,100.00
2022-11-28T20:33:58.555Z,100.00
2022-11-28T20:36:27.684Z,100.00
2022-11-28T20:38:55.604Z,100.00
2022-11-28T20:41:24.611Z,100.00
2022-11-28T20:43:52.011Z,100.00
2022-11-28T20:46:27.289Z,100.00
2022-11-28T20:48:54.913Z,100.00
2022-11-28T20:51:24.906Z,100.00
2022-11-28T20:53:52.856Z,100.00
2022-11-28T20:56:25.207Z,100.00
2022-11-28T20:58:52.589Z,100.00
2022-11-28T21:01:22.602Z,100.00
2022-11-28T21:03:50.515Z,100.00
2022-11-28T21:06:18.171Z,100.00
2022-11-28T21:08:45.623Z,100.00
2022-11-28T21:11:36.506Z,100.00
2022-11-28T21:14:04.970Z,100.00
2022-11-28T21:16:33.249Z,100.00
2022-11-28T21:19:05.677Z,100.00
2022-11-28T21:21:33.509Z,100.00
2022-11-28T21:24:07.342Z,100.00
2022-11-28T21:26:40.500Z,100.00
2022-11-28T21:29:11.259Z,100.00
2022-11-28T21:31:41.914Z,100.00
2022-11-28T21:34:15.385Z,100.00
2022-11-28T21:36:42.700Z,100.00
2022-11-28T21:39:18.903Z,100.00
2022-11-28T21:41:46.390Z,100.00
2022-11-28T21:44:13.263Z,100.00
2022-11-28T21:46:40.254Z,100.00
2022-11-28T21:49:07.142Z,100.00
2022-11-28T21:51:33.968Z,100.00
2022-11-28T21:54:02.083Z,100.00
2022-11-28T21:56:28.895Z,100.00
2022-11-28T21:58:56.016Z,100.00
2022-11-28T22:01:22.879Z,100.00
2022-11-28T22:03:49.977Z,100.00
2022-11-28T22:06:22.447Z,100.00
2022-11-28T22:08:49.885Z,100.00
2022-11-28T22:11:17.101Z,100.00
2022-11-28T22:13:47.262Z,100.00
2022-11-28T22:16:18.962Z,100.00
2022-11-28T22:18:47.322Z,100.00
2022-11-28T22:24:04.674Z,100.00
2022-11-28T22:26:31.704Z,100.00
2022-11-28T22:29:03.911Z,100.00
2022-11-28T22:31:30.999Z,100.00
2022-11-28T22:33:57.986Z,100.00
2022-11-28T22:36:24.838Z,100.00
2022-11-28T22:38:55.900Z,100.00
2022-11-28T22:41:28.457Z,100.00
2022-11-28T22:43:59.503Z,100.00
2022-11-28T22:46:26.491Z,100.00
2022-11-28T22:48:53.568Z,100.00
2022-11-28T22:51:23.478Z,100.00
2022-11-28T22:53:58.115Z,100.00
2022-11-28T22:56:24.966Z,100.00
2022-11-28T22:58:51.869Z,100.00
2022-11-28T23:01:24.348Z,100.00
2022-11-28T23:03:51.641Z,100.00
2022-11-28T23:06:20.715Z,100.00
2022-11-28T23:08:48.273Z,100.00
2022-11-28T23:11:21.468Z,100.00
2022-11-28T23:13:49.777Z,100.00
2022-11-28T23:16:16.698Z,100.00
2022-11-28T23:18:44.539Z,100.00
2022-11-28T23:21:14.068Z,100.00
2022-11-28T23:23:41.006Z,100.00
2022-11-28T23:26:10.688Z,100.00
2022-11-28T23:28:37.964Z,100.00
2022-11-28T23:31:14.335Z,100.00
2022-11-28T23:33:41.474Z,100.00
2022-11-28T23:36:15.506Z,100.00
2022-11-28T23:38:43.282Z,100.00
2022-11-28T23:41:11.354Z,100.00
2022-11-28T23:43:38.354Z,100.00
2022-11-28T23:46:06.139Z,100.00
2022-11-28T23:48:33.426Z,100.00
2022-11-28T23:51:00.466Z,100.00
2022-11-28T23:53:27.403Z,100.00
2022-11-28T23:55:54.295Z,100.00
2022-11-28T23:58:21.113Z,100.00
